createdAt,value
2023-03-23T00:00:33.288Z,98977.28
2023-03-23T00:04:34.959Z,98978.34
2023-03-23T00:08:46.010Z,98975.03
2023-03-23T00:12:50.856Z,98975.63
2023-03-23T00:16:52.637Z,98966.50
2023-03-23T00:20:57.892Z,98974.22
2023-03-23T00:24:59.512Z,98967.75
2023-03-23T00:29:04.869Z,98961.63
2023-03-23T00:33:06.555Z,98960.69
2023-03-23T00:37:08.893Z,98948.16
2023-03-23T00:41:12.550Z,98937.81
2023-03-23T00:45:14.899Z,98944.25
2023-03-23T00:49:19.957Z,98936.75
2023-03-23T00:53:22.060Z,98944.72
2023-03-23T00:57:25.296Z,98945.81
2023-03-23T01:01:27.035Z,98946.13
2023-03-23T01:05:33.164Z,98938.09
2023-03-23T01:09:36.060Z,98931.31
2023-03-23T01:13:39.297Z,98930.09
2023-03-23T01:17:41.740Z,98927.09
2023-03-23T01:21:43.618Z,98931.31
2023-03-23T01:25:46.394Z,98924.66
2023-03-23T01:29:48.072Z,98925.75
2023-03-23T01:33:53.211Z,98936.25
2023-03-23T01:37:56.376Z,98925.75
2023-03-23T01:41:58.695Z,98907.53
2023-03-23T01:46:01.046Z,98927.72
2023-03-23T01:50:02.845Z,98911.88
2023-03-23T01:54:09.546Z,98912.19
2023-03-23T01:58:13.589Z,98916.63
2023-03-23T02:02:17.213Z,98907.41
2023-03-23T02:06:21.389Z,98904.41
2023-03-23T02:10:42.076Z,98892.78
2023-03-23T02:14:53.804Z,98910.56
2023-03-23T02:18:59.107Z,98913.91
2023-03-23T02:23:13.163Z,98927.66
2023-03-23T02:27:44.135Z,98913.53
2023-03-23T02:31:59.429Z,98911.69
2023-03-23T02:36:28.002Z,98905.06
2023-03-23T02:40:34.515Z,98901.25
2023-03-23T02:44:39.950Z,98884.94
2023-03-23T02:48:45.165Z,98874.94
2023-03-23T02:52:49.553Z,98893.00
2023-03-23T02:56:52.943Z,98884.19
2023-03-23T03:01:00.155Z,98882.50
2023-03-23T03:05:08.076Z,98888.06
2023-03-23T03:09:27.507Z,98876.16
2023-03-23T03:14:19.944Z,98877.06
2023-03-23T03:18:39.286Z,98867.75
2023-03-23T03:22:44.370Z,98868.06
2023-03-23T03:26:49.537Z,98864.91
2023-03-23T03:31:01.736Z,98856.81
2023-03-23T03:35:04.745Z,98848.13
2023-03-23T03:39:09.477Z,98850.31
2023-03-23T03:43:12.251Z,98850.81
2023-03-23T03:47:14.121Z,98840.25
2023-03-23T03:51:15.778Z,98837.25
2023-03-23T03:55:22.264Z,98833.56
2023-03-23T03:59:27.232Z,98825.25
2023-03-23T04:03:47.182Z,98832.16
2023-03-23T04:08:09.543Z,98843.44
2023-03-23T04:12:11.704Z,98835.66
2023-03-23T04:16:30.716Z,98846.75
2023-03-23T04:20:36.004Z,98852.38
2023-03-23T04:24:57.057Z,98854.78
2023-03-23T04:29:00.297Z,98869.56
2023-03-23T04:33:57.495Z,98866.56
2023-03-23T04:37:57.990Z,98882.44
2023-03-23T04:42:02.557Z,98886.19
2023-03-23T04:46:29.992Z,98884.09
2023-03-23T04:50:35.763Z,98897.16
2023-03-23T04:54:48.987Z,98893.63
2023-03-23T04:58:51.561Z,98890.69
2023-03-23T05:03:09.118Z,98895.03
2023-03-23T05:07:12.662Z,98905.78
2023-03-23T05:11:22.041Z,98922.09
2023-03-23T05:15:25.078Z,98916.81
2023-03-23T05:19:27.540Z,98926.06
2023-03-23T05:23:34.932Z,98934.91
2023-03-23T05:27:50.845Z,98932.41
2023-03-23T05:32:00.826Z,98935.28
2023-03-23T05:36:05.563Z,98928.66
2023-03-23T05:40:17.726Z,98907.22
2023-03-23T05:44:26.260Z,98914.66
2023-03-23T05:48:31.607Z,98930.69
2023-03-23T05:52:36.579Z,98919.91
2023-03-23T05:56:42.079Z,98920.69
2023-03-23T06:00:57.241Z,98939.63
2023-03-23T06:05:04.223Z,98932.41
2023-03-23T06:09:11.211Z,98929.69
2023-03-23T06:13:37.840Z,98939.63
2023-03-23T06:17:44.719Z,98955.16
2023-03-23T06:21:48.679Z,98966.28
2023-03-23T06:26:30.541Z,98969.41
2023-03-23T06:30:37.644Z,98977.50
2023-03-23T06:34:41.738Z,98980.09
2023-03-23T06:38:56.539Z,98975.38
2023-03-23T06:43:08.562Z,98988.75
2023-03-23T06:47:33.796Z,98992.13
2023-03-23T06:51:38.191Z,98996.09
2023-03-23T06:55:40.740Z,99002.50
2023-03-23T06:59:43.757Z,98994.06
2023-03-23T07:03:47.131Z,98995.72
2023-03-23T07:07:54.820Z,99000.16
2023-03-23T07:12:10.548Z,98993.47
2023-03-23T07:16:20.261Z,98991.69
2023-03-23T07:20:23.998Z,98997.44
2023-03-23T07:24:25.953Z,99007.81
2023-03-23T07:28:41.423Z,98997.75
2023-03-23T07:33:14.799Z,99000.25
2023-03-23T07:37:18.538Z,99008.16
2023-03-23T07:41:24.611Z,99015.34
2023-03-23T07:45:31.080Z,99024.00
2023-03-23T07:49:35.498Z,99026.00
2023-03-23T07:53:52.518Z,99028.53
2023-03-23T07:58:20.246Z,99027.13
2023-03-23T08:02:29.237Z,99021.84
2023-03-23T08:06:58.126Z,99014.63
2023-03-23T08:11:16.521Z,99021.19
2023-03-23T08:15:32.237Z,99043.78
2023-03-23T08:19:47.562Z,99046.31
2023-03-23T08:24:19.857Z,99058.28
2023-03-23T08:29:00.246Z,99064.53
2023-03-23T08:33:27.210Z,99067.59
2023-03-23T08:37:53.742Z,99065.97
2023-03-23T08:42:15.303Z,99081.75
2023-03-23T08:46:35.800Z,99079.56
2023-03-23T08:50:56.627Z,99094.75
2023-03-23T08:55:30.254Z,99106.16
2023-03-23T08:59:49.504Z,99108.91
2023-03-23T09:03:56.518Z,99108.34
2023-03-23T09:08:19.452Z,99101.16
2023-03-23T09:12:23.518Z,99098.63
2023-03-23T09:16:27.791Z,99105.25
2023-03-23T09:20:30.482Z,99092.03
2023-03-23T09:24:34.519Z,99099.63
2023-03-23T09:28:37.736Z,99100.09
2023-03-23T09:32:41.535Z,99107.19
2023-03-23T09:36:45.682Z,99110.19
2023-03-23T09:41:06.540Z,99113.44
2023-03-23T09:45:23.359Z,99111.06
2023-03-23T09:49:30.866Z,99109.69
2023-03-23T09:53:51.039Z,99106.16
2023-03-23T09:58:00.108Z,99121.16
2023-03-23T10:02:16.526Z,99106.88
2023-03-23T10:06:23.302Z,99102.75
2023-03-23T10:10:44.523Z,99103.22
2023-03-23T10:15:10.546Z,99093.59
2023-03-23T10:19:31.778Z,99097.03
2023-03-23T10:24:02.533Z,99104.47
2023-03-23T10:28:11.825Z,99107.63
2023-03-23T10:32:19.609Z,99124.13
2023-03-23T10:36:33.222Z,99127.72
2023-03-23T10:40:39.056Z,99125.16
2023-03-23T10:44:42.631Z,99139.41
2023-03-23T10:48:45.129Z,99130.22
2023-03-23T10:52:53.673Z,99122.06
2023-03-23T10:56:59.679Z,99118.63
2023-03-23T11:01:06.520Z,99125.53
2023-03-23T11:05:20.231Z,99116.94
2023-03-23T11:09:37.827Z,99120.16
2023-03-23T11:13:47.130Z,99121.56
2023-03-23T11:18:01.577Z,99124.03
2023-03-23T11:22:07.507Z,99110.25
2023-03-23T11:26:22.295Z,99113.72
2023-03-23T11:30:28.702Z,99131.28
2023-03-23T11:34:36.491Z,99127.75
2023-03-23T11:38:39.032Z,99115.09
2023-03-23T11:42:47.801Z,99127.03
2023-03-23T11:47:17.532Z,99117.38
2023-03-23T11:51:31.268Z,99124.75
2023-03-23T11:55:57.496Z,99122.38
2023-03-23T12:00:02.100Z,99128.38
2023-03-23T12:05:03.361Z,99111.59
2023-03-23T12:09:38.520Z,99103.84
2023-03-23T12:14:09.717Z,99100.56
2023-03-23T12:18:26.849Z,99112.06
2023-03-23T12:22:50.134Z,99118.41
2023-03-23T12:27:20.511Z,99108.44
2023-03-23T12:31:36.511Z,99082.75
2023-03-23T12:35:57.341Z,99078.56
2023-03-23T12:40:46.754Z,99060.22
2023-03-23T12:44:54.086Z,99054.25
2023-03-23T12:49:06.689Z,99049.50
2023-03-23T12:53:18.515Z,99033.47
2023-03-23T12:57:28.523Z,99051.59
2023-03-23T13:05:42.113Z,99056.81
2023-03-23T13:09:53.401Z,99056.84
2023-03-23T13:14:10.915Z,99049.34
2023-03-23T13:18:45.814Z,99044.44
2023-03-23T13:22:54.512Z,99042.13
2023-03-23T13:27:02.268Z,99042.81
2023-03-23T13:31:28.914Z,99041.31
2023-03-23T13:35:39.508Z,99038.31
2023-03-23T13:39:57.658Z,99040.53
2023-03-23T13:44:18.358Z,99049.69
2023-03-23T13:48:26.156Z,99030.94
2023-03-23T13:52:46.789Z,99034.44
2023-03-23T13:57:08.264Z,99029.25
2023-03-23T14:01:18.496Z,99022.03
2023-03-23T14:05:21.473Z,99029.94
2023-03-23T14:09:36.032Z,99036.19
2023-03-23T14:13:45.020Z,99040.59
2023-03-23T14:17:46.891Z,99052.03
2023-03-23T14:22:00.498Z,99042.75
2023-03-23T14:26:13.325Z,99045.19
2023-03-23T14:30:25.488Z,99040.25
2023-03-23T14:34:32.722Z,99045.41
2023-03-23T14:38:36.406Z,99054.03
2023-03-23T14:42:39.046Z,99035.91
2023-03-23T14:46:43.545Z,99042.47
2023-03-23T14:50:53.240Z,99031.78
2023-03-23T14:54:56.501Z,99036.28
2023-03-23T14:59:05.149Z,99037.38
2023-03-23T15:03:14.146Z,99042.13
2023-03-23T15:07:19.216Z,99036.88
2023-03-23T15:11:31.506Z,99033.38
2023-03-23T15:15:36.174Z,99022.47
2023-03-23T15:19:44.556Z,99020.28
2023-03-23T15:23:46.372Z,99021.78
2023-03-23T15:27:57.363Z,99026.41
2023-03-23T15:32:00.601Z,99021.97
2023-03-23T15:36:16.646Z,99014.66
2023-03-23T15:40:25.496Z,99029.00
2023-03-23T15:44:33.579Z,99024.81
2023-03-23T15:49:12.484Z,99027.47
2023-03-23T15:53:26.845Z,99029.44
2023-03-23T15:57:30.779Z,99028.56
2023-03-23T16:01:33.008Z,99041.13
2023-03-23T16:05:37.204Z,99048.47
2023-03-23T16:09:45.044Z,99037.44
2023-03-23T16:13:47.246Z,99042.00
2023-03-23T16:17:51.531Z,99027.81
2023-03-23T16:21:53.479Z,99030.88
2023-03-23T16:25:56.557Z,99031.28
2023-03-23T16:30:05.132Z,99028.28
2023-03-23T16:34:07.481Z,99026.78
2023-03-23T16:38:16.073Z,99028.88
2023-03-23T16:42:18.514Z,99027.63
2023-03-23T16:46:20.490Z,99032.25
2023-03-23T16:50:22.481Z,99024.16
2023-03-23T16:54:25.518Z,99026.94
2023-03-23T16:58:31.744Z,99037.53
2023-03-23T17:02:36.589Z,99030.13
2023-03-23T17:06:42.856Z,99015.50
2023-03-23T17:10:48.110Z,99013.91
2023-03-23T17:14:52.539Z,99006.28
2023-03-23T17:18:54.291Z,99000.31
2023-03-23T17:22:56.031Z,99001.28
2023-03-23T17:26:57.738Z,99000.50
2023-03-23T17:30:59.611Z,98999.44
2023-03-23T17:35:02.720Z,99014.75
2023-03-23T17:39:04.617Z,99008.44
2023-03-23T17:43:08.496Z,99014.03
2023-03-23T17:47:11.685Z,99021.56
2023-03-23T17:51:13.782Z,99023.03
2023-03-23T17:55:16.138Z,99015.53
2023-03-23T17:59:18.137Z,99013.00
2023-03-23T18:03:20.115Z,99015.50
2023-03-23T18:07:23.670Z,99019.06
2023-03-23T18:11:25.437Z,99015.38
2023-03-23T18:15:29.424Z,99019.25
2023-03-23T18:19:33.496Z,99010.09
2023-03-23T18:23:46.176Z,99018.91
2023-03-23T18:27:51.659Z,99024.91
2023-03-23T18:31:53.353Z,99015.94
2023-03-23T18:35:59.580Z,99006.22
2023-03-23T18:40:02.317Z,99004.81
2023-03-23T18:44:04.517Z,99003.09
2023-03-23T18:48:09.646Z,99009.19
2023-03-23T18:52:11.511Z,99000.84
2023-03-23T18:56:16.717Z,99005.59
2023-03-23T19:00:18.919Z,98995.00
2023-03-23T19:04:22.636Z,98998.38
2023-03-23T19:08:25.075Z,98999.47
2023-03-23T19:12:27.146Z,98996.41
2023-03-23T19:16:31.294Z,99003.31
2023-03-23T19:21:06.145Z,99001.34
2023-03-23T19:24:57.337Z,98999.72
2023-03-23T19:33:04.666Z,98998.03
2023-03-23T19:37:11.020Z,98989.22
2023-03-23T19:41:13.499Z,98982.84
2023-03-23T19:45:17.604Z,98973.13
2023-03-23T19:49:19.867Z,98974.78
2023-03-23T19:53:23.076Z,98974.25
2023-03-23T19:57:25.478Z,98967.59
2023-03-23T20:01:28.288Z,98964.28
2023-03-23T20:05:35.281Z,98962.94
2023-03-23T20:09:39.086Z,98969.38
2023-03-23T20:13:41.599Z,98958.56
2023-03-23T20:17:44.144Z,98950.03
2023-03-23T20:21:45.994Z,98943.44
2023-03-23T20:25:49.731Z,98936.81
2023-03-23T20:29:53.752Z,98928.56
2023-03-23T20:34:02.060Z,98927.31
2023-03-23T20:38:04.186Z,98927.72
2023-03-23T20:42:11.602Z,98923.91
2023-03-23T20:46:13.616Z,98917.59
2023-03-23T20:50:15.335Z,98917.88
2023-03-23T20:54:19.945Z,98910.34
2023-03-23T20:58:22.540Z,98911.28
2023-03-23T21:02:26.521Z,98903.09
2023-03-23T21:06:29.166Z,98903.44
2023-03-23T21:10:31.145Z,98901.00
2023-03-23T21:14:33.949Z,98902.69
2023-03-23T21:18:35.628Z,98895.41
2023-03-23T21:22:37.493Z,98894.19
2023-03-23T21:26:40.093Z,98887.44
2023-03-23T21:30:45.801Z,98881.28
2023-03-23T21:34:48.508Z,98869.06
2023-03-23T21:38:50.734Z,98878.72
2023-03-23T21:42:53.348Z,98869.72
2023-03-23T21:46:55.085Z,98865.50
2023-03-23T21:50:57.023Z,98872.31
2023-03-23T21:54:59.719Z,98871.28
2023-03-23T21:59:01.863Z,98865.84
2023-03-23T22:03:04.898Z,98861.94
2023-03-23T22:07:07.492Z,98856.38
2023-03-23T22:11:23.223Z,98851.56
2023-03-23T22:15:28.016Z,98857.94
2023-03-23T22:19:29.786Z,98851.97
2023-03-23T22:23:31.595Z,98845.28
2023-03-23T22:27:33.252Z,98853.09
2023-03-23T22:31:35.460Z,98847.75
2023-03-23T22:35:37.656Z,98845.19
2023-03-23T22:39:39.373Z,98833.16
2023-03-23T22:43:41.063Z,98835.63
2023-03-23T22:47:43.073Z,98819.28
2023-03-23T22:51:45.068Z,98816.78
2023-03-23T22:55:49.850Z,98820.09
2023-03-23T22:59:51.562Z,98824.00
2023-03-23T23:03:53.313Z,98818.44
2023-03-23T23:07:55.305Z,98826.56
2023-03-23T23:11:56.992Z,98813.38
2023-03-23T23:16:00.978Z,98807.25
2023-03-23T23:20:05.884Z,98818.88
2023-03-23T23:24:08.055Z,98810.59
2023-03-23T23:28:09.698Z,98814.59
2023-03-23T23:32:11.360Z,98806.00
2023-03-23T23:36:14.628Z,98808.25
2023-03-23T23:40:17.771Z,98794.16
2023-03-23T23:44:19.534Z,98782.84
2023-03-23T23:48:21.777Z,98777.31
2023-03-23T23:52:23.447Z,98777.59
2023-03-23T23:56:25.767Z,98778.81
